Time;durP1;ratioP1;P1;durP2;ratioP2;P2;SDS_P1;SDS_P2;PMS_P1;PMS_P2;Temp;Humidity;BMP_temperature;BMP_pressure;BME280_temperature;BME280_humidity;BME280_pressure;Samples;Min_cycle;Max_cycle;Signal;HPM_P1;HPM_P2
2024/03/04 00:14:47;;;;;;;;;;;22.70;47.70;;;;;;3020408;19;5348;-69
2024/03/04 00:15:49;;;;;;;;;;;21.70;37.80;;;;;;3048520;19;5307;-81
2024/03/04 00:16:50;;;;;;;;;;;21.70;37.80;;;;;;3049115;19;5518;-79
2024/03/04 00:17:51;;;;;;;;;;;21.70;37.90;;;;;;3025628;19;4739;-79
2024/03/04 00:18:52;;;;;;;;;;;21.70;37.90;;;;;;3046543;19;4774;-80
2024/03/04 00:19:52;;;;;;;;;;;21.70;37.90;;;;;;3026392;19;4644;-80
2024/03/04 00:20:53;;;;;;;;;;;21.70;37.90;;;;;;3046739;19;5133;-79
2024/03/04 00:21:55;;;;;;;;;;;21.70;37.90;;;;;;3048282;19;5420;-79
2024/03/04 00:22:56;;;;;;;;;;;21.70;37.80;;;;;;3024049;19;4867;-79
2024/03/04 00:23:57;;;;;;;;;;;21.80;37.90;;;;;;3048037;19;5479;-80
2024/03/04 00:24:57;;;;;;;;;;;21.80;37.90;;;;;;3048738;19;7934;-80
2024/03/04 00:25:58;;;;;;;;;;;23.50;38.90;;;;;;3025779;19;5364;-81
2024/03/04 00:26:59;;;;;;;;;;;21.70;38.00;;;;;;3046117;19;5880;-80
2024/03/04 00:28:00;;;;;;;;;;;21.60;37.80;;;;;;3025513;19;5247;-79
2024/03/04 00:29:00;;;;;;;;;;;21.60;37.80;;;;;;3047766;19;5429;-79
2024/03/04 00:30:01;;;;;;;;;;;21.60;37.80;;;;;;3045341;19;4951;-80
2024/03/04 00:31:03;;;;;;;;;;;21.60;37.80;;;;;;3026199;19;4782;-80
2024/03/04 00:32:05;;;;;;;;;;;21.60;37.90;;;;;;3048645;19;5281;-81
2024/03/04 00:33:08;;;;;;;;;;;21.60;37.80;;;;;;3024684;19;7440;-76
2024/03/04 00:34:08;;;;;;;;;;;21.60;37.80;;;;;;3046669;19;5451;-79
2024/03/04 00:35:10;;;;;;;;;;;21.60;37.90;;;;;;3045857;19;5506;-80
2024/03/04 00:36:11;;;;;;;;;;;21.60;37.80;;;;;;3026319;19;4907;-80
2024/03/04 00:37:12;;;;;;;;;;;21.60;37.80;;;;;;3047844;19;4930;-81
2024/03/04 00:38:12;;;;;;;;;;;21.60;37.90;;;;;;3048642;19;5457;-78
2024/03/04 00:39:13;;;;;;;;;;;21.60;37.90;;;;;;3023689;19;4891;-80
2024/03/04 00:40:14;;;;;;;;;;;22.80;38.50;;;;;;3043792;19;2323;-78
2024/03/04 00:41:21;;;;;;;;;;;21.60;37.90;;;;;;3025116;19;5269;-79
2024/03/04 00:42:25;;;;;;;;;;;21.60;37.80;;;;;;3048721;19;5408;-79
2024/03/04 00:43:26;;;;;;;;;;;22.00;38.10;;;;;;3048571;19;5325;-81
2024/03/04 00:44:26;;;;;;;;;;;21.60;37.90;;;;;;3026506;19;4807;-79
2024/03/04 00:45:27;;;;;;;;;;;21.60;37.80;;;;;;3045763;19;5486;-80
2024/03/04 00:46:27;;;;;;;;;;;21.60;37.80;;;;;;3024263;19;5305;-81
2024/03/04 00:47:29;;;;;;;;;;;21.50;37.70;;;;;;3047555;19;4702;-80
2024/03/04 00:48:29;;;;;;;;;;;21.50;37.80;;;;;;3046337;19;5765;-79
2024/03/04 00:49:30;;;;;;;;;;;21.50;37.80;;;;;;3025096;19;5321;-80
2024/03/04 00:50:31;;;;;;;;;;;21.50;37.80;;;;;;3047034;19;5472;-79
2024/03/04 00:51:32;;;;;;;;;;;21.50;37.80;;;;;;3046816;19;5457;-81
2024/03/04 00:52:33;;;;;;;;;;;21.50;37.80;;;;;;3023774;19;4993;-80
2024/03/04 00:53:33;;;;;;;;;;;22.00;38.10;;;;;;3046168;19;5439;-80
2024/03/04 00:54:34;;;;;;;;;;;21.50;37.90;;;;;;3026848;19;4985;-79
2024/03/04 00:55:37;;;;;;;;;;;21.50;37.80;;;;;;3048632;19;5350;-80
2024/03/04 00:56:38;;;;;;;;;;;21.70;38.00;;;;;;3047608;19;5208;-79
2024/03/04 00:57:38;;;;;;;;;;;21.50;37.90;;;;;;3026880;19;4877;-80
2024/03/04 00:58:40;;;;;;;;;;;21.50;37.80;;;;;;3047308;19;5240;-81
2024/03/04 00:59:40;;;;;;;;;;;21.50;37.80;;;;;;3049914;19;5326;-80
2024/03/04 01:00:42;;;;;;;;;;;21.50;37.80;;;;;;3026210;19;5222;-79
2024/03/04 01:01:43;;;;;;;;;;;21.50;37.80;;;;;;3047593;19;4884;-80
2024/03/04 01:02:44;;;;;;;;;;;22.90;38.50;;;;;;3025670;19;5456;-80
2024/03/04 01:03:45;;;;;;;;;;;21.50;37.80;;;;;;3048219;19;5454;-80
2024/03/04 01:04:45;;;;;;;;;;;22.00;38.00;;;;;;3048722;19;5348;-79
2024/03/04 01:05:46;;;;;;;;;;;21.20;37.60;;;;;;3026240;19;4877;-78
2024/03/04 01:06:51;;;;;;;;;;;21.50;37.70;;;;;;3047117;19;5372;-78
2024/03/04 01:07:52;;;;;;;;;;;21.50;37.70;;;;;;3028094;19;4922;-81
2024/03/04 01:08:53;;;;;;;;;;;21.50;37.80;;;;;;3047974;19;5157;-80
2024/03/04 01:09:56;;;;;;;;;;;21.60;37.80;;;;;;3047507;19;5318;-80
2024/03/04 01:10:57;;;;;;;;;;;22.80;38.50;;;;;;3027723;19;5428;-81
2024/03/04 01:11:57;;;;;;;;;;;21.50;37.80;;;;;;3047774;19;5420;-79
2024/03/04 01:12:58;;;;;;;;;;;21.50;37.80;;;;;;3048242;19;5299;-79
2024/03/04 01:13:59;;;;;;;;;;;21.40;37.70;;;;;;3024517;19;5424;-80
2024/03/04 01:15:00;;;;;;;;;;;21.50;37.80;;;;;;3046784;19;5154;-79
2024/03/04 01:16:00;;;;;;;;;;;21.40;37.70;;;;;;3026133;19;5844;-80
2024/03/04 01:17:01;;;;;;;;;;;21.40;37.70;;;;;;3047344;19;5779;-80
2024/03/04 01:18:04;;;;;;;;;;;21.40;37.70;;;;;;3049353;19;4653;-79
2024/03/04 01:19:07;;;;;;;;;;;21.40;37.80;;;;;;3025160;19;5386;-69
2024/03/04 01:20:13;;;;;;;;;;;21.40;37.80;;;;;;3046708;19;5356;-70
2024/03/04 01:21:13;;;;;;;;;;;21.40;37.70;;;;;;3023560;19;5342;-69
2024/03/04 01:22:16;;;;;;;;;;;21.40;37.70;;;;;;3041723;19;5737;-68
2024/03/04 01:23:16;;;;;;;;;;;21.40;37.70;;;;;;3045036;19;5436;-69
2024/03/04 01:24:17;;;;;;;;;;;21.40;37.70;;;;;;3022441;19;5360;-69
2024/03/04 01:25:18;;;;;;;;;;;21.40;37.70;;;;;;3043374;19;5506;-68
2024/03/04 01:26:19;;;;;;;;;;;22.90;38.60;;;;;;3045624;19;5532;-69
2024/03/04 01:27:21;;;;;;;;;;;21.40;37.70;;;;;;3019924;19;4967;-68
2024/03/04 01:28:23;;;;;;;;;;;21.40;37.70;;;;;;3042655;19;5786;-68
2024/03/04 01:29:25;;;;;;;;;;;21.40;37.70;;;;;;3024624;19;4653;-80
2024/03/04 01:30:27;;;;;;;;;;;21.40;37.80;;;;;;3045130;19;5296;-80
2024/03/04 01:31:28;;;;;;;;;;;21.40;37.70;;;;;;3046570;19;5402;-80
2024/03/04 01:32:29;;;;;;;;;;;21.40;37.70;;;;;;3026554;19;4727;-81
2024/03/04 01:33:30;;;;;;;;;;;22.50;38.30;;;;;;3047565;19;5391;-81
2024/03/04 01:34:31;;;;;;;;;;;21.30;37.70;;;;;;3027691;19;5852;-80
2024/03/04 01:35:32;;;;;;;;;;;21.30;37.70;;;;;;3049082;19;4828;-80
2024/03/04 01:36:33;;;;;;;;;;;21.20;37.60;;;;;;3049238;19;4955;-79
2024/03/04 01:37:34;;;;;;;;;;;21.30;37.70;;;;;;3027413;19;4667;-80
2024/03/04 01:38:35;;;;;;;;;;;21.40;37.70;;;;;;3047754;19;4947;-81
2024/03/04 01:39:37;;;;;;;;;;;21.40;37.70;;;;;;3048751;19;4933;-81
2024/03/04 01:40:38;;;;;;;;;;;21.30;37.70;;;;;;3027215;19;5340;-81
2024/03/04 01:41:38;;;;;;;;;;;21.30;37.70;;;;;;3052575;19;5893;-78
2024/03/04 01:42:43;;;;;;;;;;;21.30;37.60;;;;;;3031653;19;4712;-79
2024/03/04 01:43:44;;;;;;;;;;;21.30;37.70;;;;;;3053117;19;5417;-80
2024/03/04 01:44:45;;;;;;;;;;;21.10;37.50;;;;;;3051864;19;4872;-82
2024/03/04 01:45:45;;;;;;;;;;;21.30;37.70;;;;;;3030219;19;5321;-79
2024/03/04 01:46:46;;;;;;;;;;;21.30;37.60;;;;;;3052540;19;4869;-80
2024/03/04 01:47:47;;;;;;;;;;;21.30;37.60;;;;;;3030983;19;6053;-80
2024/03/04 01:48:47;;;;;;;;;;;21.30;37.60;;;;;;3055466;19;5381;-80
2024/03/04 01:49:48;;;;;;;;;;;21.30;37.80;;;;;;3055457;19;5006;-81
2024/03/04 01:50:49;;;;;;;;;;;21.30;37.60;;;;;;3034641;19;5107;-79
2024/03/04 01:51:49;;;;;;;;;;;22.00;38.10;;;;;;3058517;19;5148;-81
2024/03/04 01:52:52;;;;;;;;;;;21.30;37.60;;;;;;3059844;19;5313;-80
2024/03/04 01:53:52;;;;;;;;;;;21.30;37.60;;;;;;3037154;19;5224;-79
2024/03/04 01:54:53;;;;;;;;;;;21.30;37.70;;;;;;3057953;19;4940;-80
2024/03/04 01:55:56;;;;;;;;;;;21.30;37.60;;;;;;3035811;19;4844;-80
2024/03/04 01:56:57;;;;;;;;;;;21.30;37.70;;;;;;3056028;19;5408;-80
2024/03/04 01:57:58;;;;;;;;;;;21.30;37.70;;;;;;3058312;19;4733;-80
2024/03/04 01:58:58;;;;;;;;;;;21.30;37.70;;;;;;3034447;19;5336;-81
2024/03/04 02:00:00;;;;;;;;;;;21.30;37.60;;;;;;3058191;19;5358;-81
2024/03/04 02:01:01;;;;;;;;;;;21.20;37.60;;;;;;3056415;19;4817;-79
2024/03/04 02:02:02;;;;;;;;;;;21.80;38.00;;;;;;3035966;19;4691;-80
2024/03/04 02:03:03;;;;;;;;;;;21.70;38.00;;;;;;3056746;19;4872;-80
2024/03/04 02:04:03;;;;;;;;;;;21.20;37.60;;;;;;3035514;19;5561;-81
2024/03/04 02:05:08;;;;;;;;;;;21.20;37.70;;;;;;3054914;19;4895;-81
2024/03/04 02:06:09;;;;;;;;;;;21.20;37.70;;;;;;3053693;19;4699;-80
2024/03/04 02:07:10;;;;;;;;;;;20.50;37.30;;;;;;3030422;19;4900;-80
2024/03/04 02:08:13;;;;;;;;;;;21.20;37.70;;;;;;3055177;19;5376;-80
2024/03/04 02:09:15;;;;;;;;;;;21.20;37.70;;;;;;3032621;19;4831;-80
2024/03/04 02:10:16;;;;;;;;;;;21.20;37.70;;;;;;3054168;19;5823;-80
2024/03/04 02:11:19;;;;;;;;;;;21.20;37.70;;;;;;3055119;19;5311;-78
2024/03/04 02:12:19;;;;;;;;;;;21.20;37.70;;;;;;3033232;19;5394;-80
2024/03/04 02:13:23;;;;;;;;;;;21.20;37.80;;;;;;3053844;19;5362;-80
2024/03/04 02:14:23;;;;;;;;;;;20.60;37.50;;;;;;3033012;19;5426;-81
2024/03/04 02:15:24;;;;;;;;;;;21.20;37.80;;;;;;3053370;19;4920;-81
2024/03/04 02:16:25;;;;;;;;;;;21.10;37.70;;;;;;3056408;19;5283;-80
2024/03/04 02:17:27;;;;;;;;;;;21.10;37.80;;;;;;3033495;19;6370;-81
2024/03/04 02:18:28;;;;;;;;;;;22.40;38.50;;;;;;3055165;19;4635;-80
2024/03/04 02:19:28;;;;;;;;;;;21.70;38.10;;;;;;3056490;19;6323;-80
2024/03/04 02:20:29;;;;;;;;;;;21.10;37.80;;;;;;3033911;19;5570;-81
2024/03/04 02:21:30;;;;;;;;;;;21.10;37.80;;;;;;3057402;19;5515;-80
2024/03/04 02:22:31;;;;;;;;;;;21.10;37.80;;;;;;3035727;19;5519;-81
2024/03/04 02:23:32;;;;;;;;;;;21.20;37.90;;;;;;3064071;19;4902;-80
2024/03/04 02:24:33;;;;;;;;;;;21.20;37.90;;;;;;3072305;19;4916;-79
2024/03/04 02:25:34;;;;;;;;;;;22.40;38.50;;;;;;3049831;19;4898;-80
2024/03/04 02:26:36;;;;;;;;;;;23.10;38.90;;;;;;3071711;19;4908;-81
2024/03/04 02:27:36;;;;;;;;;;;21.10;37.80;;;;;;3071762;19;5438;-80
2024/03/04 02:29:05;;;;;;;;;;;21.10;37.80;;;;;;3046002;19;5206;-68
2024/03/04 02:30:07;;;;;;;;;;;21.10;37.90;;;;;;3050507;19;5411;-68
2024/03/04 02:31:10;;;;;;;;;;;21.10;37.80;;;;;;3028455;19;5539;-68
2024/03/04 02:32:11;;;;;;;;;;;21.90;38.30;;;;;;3051828;19;5502;-68
2024/03/04 02:33:12;;;;;;;;;;;21.10;37.80;;;;;;3030237;19;5291;-68
2024/03/04 02:34:12;;;;;;;;;;;21.10;37.90;;;;;;3054981;19;5661;-68
2024/03/04 02:35:13;;;;;;;;;;;21.10;37.90;;;;;;3051556;19;5553;-68
2024/03/04 02:36:14;;;;;;;;;;;21.10;37.90;;;;;;3031471;19;5368;-68
2024/03/04 02:37:14;;;;;;;;;;;21.10;37.90;;;;;;3052690;19;5427;-68
2024/03/04 02:38:16;;;;;;;;;;;21.10;37.90;;;;;;3054815;19;5473;-68
2024/03/04 02:39:18;;;;;;;;;;;21.10;37.90;;;;;;3048729;19;4826;-74
2024/03/04 02:40:18;;;;;;;;;;;21.20;38.00;;;;;;3074455;19;5448;-74
2024/03/04 02:41:19;;;;;;;;;;;21.10;38.00;;;;;;3052238;19;4817;-75
2024/03/04 02:42:20;;;;;;;;;;;21.70;38.30;;;;;;3072805;19;5504;-74
2024/03/04 02:43:21;;;;;;;;;;;21.10;38.00;;;;;;3072918;19;5336;-75
2024/03/04 02:44:22;;;;;;;;;;;22.00;38.50;;;;;;3046244;19;5373;-75
2024/03/04 02:45:22;;;;;;;;;;;21.10;38.00;;;;;;3061865;19;5403;-74
2024/03/04 02:46:24;;;;;;;;;;;20.90;37.90;;;;;;3042837;19;4742;-76
2024/03/04 02:47:25;;;;;;;;;;;21.40;38.20;;;;;;3061501;19;5439;-75
2024/03/04 02:48:25;;;;;;;;;;;21.10;38.10;;;;;;3059846;19;4723;-73
2024/03/04 02:49:26;;;;;;;;;;;20.60;37.80;;;;;;3038871;19;5312;-75
2024/03/04 02:50:27;;;;;;;;;;;21.00;38.00;;;;;;3059724;19;4813;-75
2024/03/04 02:51:28;;;;;;;;;;;21.00;38.00;;;;;;3059841;19;4757;-75
2024/03/04 02:52:29;;;;;;;;;;;21.10;38.80;;;;;;3037804;19;4780;-76
2024/03/04 02:53:29;;;;;;;;;;;21.00;38.00;;;;;;3060389;19;5487;-74
2024/03/04 02:54:30;;;;;;;;;;;21.00;38.10;;;;;;3037621;19;5513;-74
2024/03/04 02:55:31;;;;;;;;;;;21.00;38.20;;;;;;3057470;19;4707;-76
2024/03/04 02:56:31;;;;;;;;;;;22.60;39.00;;;;;;3058356;19;5379;-76
2024/03/04 02:57:32;;;;;;;;;;;21.10;38.20;;;;;;3035306;19;4746;-75
2024/03/04 02:58:33;;;;;;;;;;;21.00;38.20;;;;;;3057848;19;5376;-75
2024/03/04 02:59:33;;;;;;;;;;;21.50;38.40;;;;;;3056491;19;4923;-75
2024/03/04 03:00:34;;;;;;;;;;;21.10;38.20;;;;;;3034054;19;5386;-75
2024/03/04 03:01:35;;;;;;;;;;;21.00;38.20;;;;;;3056505;19;5297;-75
2024/03/04 03:02:35;;;;;;;;;;;22.60;39.20;;;;;;3035805;19;4720;-74
2024/03/04 03:03:36;;;;;;;;;;;22.10;38.90;;;;;;3055505;19;5334;-76
2024/03/04 03:04:37;;;;;;;;;;;20.00;37.60;;;;;;3055134;19;4932;-75
2024/03/04 03:05:37;;;;;;;;;;;21.00;38.20;;;;;;3034722;19;5279;-75
2024/03/04 03:06:38;;;;;;;;;;;21.00;38.20;;;;;;3058144;19;5535;-75
2024/03/04 03:07:42;;;;;;;;;;;23.10;39.40;;;;;;3057075;19;5165;-75
2024/03/04 03:08:42;;;;;;;;;;;21.00;38.20;;;;;;3035070;19;4868;-76
2024/03/04 03:09:43;;;;;;;;;;;21.00;38.30;;;;;;3057135;19;5447;-76
2024/03/04 03:10:46;;;;;;;;;;;20.90;38.20;;;;;;3035345;19;5355;-75
2024/03/04 03:11:46;;;;;;;;;;;21.00;38.30;;;;;;3056223;19;4768;-74
2024/03/04 03:12:47;;;;;;;;;;;21.00;38.40;;;;;;3053773;19;5375;-75
2024/03/04 03:13:47;;;;;;;;;;;21.10;38.40;;;;;;3034355;19;5161;-75
2024/03/04 03:14:49;;;;;;;;;;;20.90;38.20;;;;;;3031519;19;4851;-76
2024/03/04 03:15:50;;;;;;;;;;;20.90;38.20;;;;;;3031727;19;4870;-75
2024/03/04 03:16:50;;;;;;;;;;;21.30;38.50;;;;;;3055170;19;5344;-75
2024/03/04 03:17:52;;;;;;;;;;;20.90;38.50;;;;;;3055014;19;5324;-75
2024/03/04 03:18:56;;;;;;;;;;;20.90;38.30;;;;;;3032327;19;5392;-75
2024/03/04 03:19:56;;;;;;;;;;;20.90;38.30;;;;;;3052415;19;5190;-75
2024/03/04 03:20:59;;;;;;;;;;;20.90;38.30;;;;;;3054549;19;5455;-75
2024/03/04 03:22:00;;;;;;;;;;;21.60;38.70;;;;;;3030202;19;4824;-74
2024/03/04 03:23:01;;;;;;;;;;;20.90;38.30;;;;;;3053536;19;5474;-74
2024/03/04 03:24:01;;;;;;;;;;;20.90;38.40;;;;;;3031606;19;5356;-75
2024/03/04 03:25:02;;;;;;;;;;;20.90;38.30;;;;;;3052177;19;5437;-75
2024/03/04 03:26:02;;;;;;;;;;;20.90;38.30;;;;;;3051186;19;4852;-75
2024/03/04 03:27:03;;;;;;;;;;;20.90;38.30;;;;;;3029699;19;4805;-75
2024/03/04 03:28:04;;;;;;;;;;;20.70;38.20;;;;;;3052806;19;5744;-75
2024/03/04 03:29:04;;;;;;;;;;;20.90;38.30;;;;;;3028113;19;4956;-75
2024/03/04 03:30:06;;;;;;;;;;;20.90;38.30;;;;;;3048759;19;5292;-74
2024/03/04 03:31:07;;;;;;;;;;;20.90;38.40;;;;;;3049885;19;5297;-76
2024/03/04 03:32:07;;;;;;;;;;;21.00;38.40;;;;;;3028377;19;5400;-75
2024/03/04 03:33:10;;;;;;;;;;;20.80;38.30;;;;;;3048804;19;5415;-75
2024/03/04 03:34:10;;;;;;;;;;;20.90;38.40;;;;;;3049198;19;5301;-74
2024/03/04 03:35:11;;;;;;;;;;;20.90;38.40;;;;;;3027114;19;4941;-74
2024/03/04 03:36:12;;;;;;;;;;;20.90;38.40;;;;;;3050346;19;5340;-74
2024/03/04 03:37:13;;;;;;;;;;;20.90;38.40;;;;;;3027495;19;5326;-74
2024/03/04 03:38:13;;;;;;;;;;;20.90;38.50;;;;;;3050064;19;5455;-75
2024/03/04 03:39:14;;;;;;;;;;;20.90;38.50;;;;;;3051121;19;4962;-75
2024/03/04 03:40:15;;;;;;;;;;;20.90;38.50;;;;;;3028713;19;5267;-75
2024/03/04 03:41:17;;;;;;;;;;;20.90;38.70;;;;;;3049383;19;4913;-75
2024/03/04 03:42:19;;;;;;;;;;;20.90;38.50;;;;;;3050156;19;5483;-74
2024/03/04 03:43:19;;;;;;;;;;;21.00;38.60;;;;;;3027744;19;5403;-75
2024/03/04 03:44:20;;;;;;;;;;;22.90;39.80;;;;;;3049221;19;4697;-75
2024/03/04 03:45:21;;;;;;;;;;;20.80;38.70;;;;;;3028062;19;5278;-75
2024/03/04 03:46:21;;;;;;;;;;;20.90;38.80;;;;;;3048902;19;4951;-74
2024/03/04 03:47:22;;;;;;;;;;;20.90;38.80;;;;;;3049993;19;5895;-75
2024/03/04 03:48:25;;;;;;;;;;;23.10;39.90;;;;;;3027008;19;5746;-76
2024/03/04 03:49:26;;;;;;;;;;;21.00;38.60;;;;;;3048070;19;5403;-68
2024/03/04 03:50:26;;;;;;;;;;;21.10;38.40;;;;;;3022987;19;5491;-68
2024/03/04 03:51:27;;;;;;;;;;;21.10;38.50;;;;;;3046453;19;4806;-69
2024/03/04 03:52:28;;;;;;;;;;;21.20;38.30;;;;;;3046683;19;5486;-69
2024/03/04 03:53:29;;;;;;;;;;;21.30;38.40;;;;;;3024602;19;4687;-68
2024/03/04 03:54:32;;;;;;;;;;;21.20;38.20;;;;;;3046423;19;4760;-68
2024/03/04 03:55:32;;;;;;;;;;;21.20;38.20;;;;;;3046129;19;4730;-67
2024/03/04 03:56:33;;;;;;;;;;;21.20;38.20;;;;;;3024288;19;5272;-67
2024/03/04 03:57:34;;;;;;;;;;;21.20;38.40;;;;;;3044245;19;5408;-67
2024/03/04 03:58:35;;;;;;;;;;;21.20;38.10;;;;;;3025674;19;5411;-70
2024/03/04 03:59:35;;;;;;;;;;;20.80;37.90;;;;;;3046367;19;6840;-68
2024/03/04 04:00:36;;;;;;;;;;;21.30;38.20;;;;;;3047665;19;5455;-68
2024/03/04 04:01:37;;;;;;;;;;;22.10;38.60;;;;;;3026191;19;5306;-67
2024/03/04 04:02:38;;;;;;;;;;;20.90;37.90;;;;;;3047285;19;5470;-68
2024/03/04 04:03:39;;;;;;;;;;;21.40;38.10;;;;;;3047086;19;4898;-69
2024/03/04 04:04:40;;;;;;;;;;;21.40;37.90;;;;;;3025398;19;4635;-68
2024/03/04 04:05:40;;;;;;;;;;;21.60;38.10;;;;;;3046546;19;5295;-68
2024/03/04 04:06:41;;;;;;;;;;;21.50;37.90;;;;;;3026837;19;5480;-68
2024/03/04 04:07:41;;;;;;;;;;;21.40;37.80;;;;;;3048772;19;5465;-68
2024/03/04 04:08:42;;;;;;;;;;;23.00;38.70;;;;;;3049377;19;5493;-69
2024/03/04 04:09:43;;;;;;;;;;;21.10;37.60;;;;;;3027563;19;5198;-69
2024/03/04 04:10:44;;;;;;;;;;;21.40;37.90;;;;;;3049049;19;5523;-69
2024/03/04 04:11:44;;;;;;;;;;;21.50;37.90;;;;;;3028838;19;5345;-68
2024/03/04 04:12:45;;;;;;;;;;;21.50;37.90;;;;;;3051266;19;5447;-66
2024/03/04 04:13:46;;;;;;;;;;;21.50;38.00;;;;;;3052188;19;5397;-66
2024/03/04 04:14:46;;;;;;;;;;;21.50;37.90;;;;;;3029798;19;5041;-68
2024/03/04 04:15:47;;;;;;;;;;;21.50;38.00;;;;;;3052089;19;5414;-70
2024/03/04 04:16:49;;;;;;;;;;;22.20;38.30;;;;;;3053262;19;5522;-67
2024/03/04 04:17:49;;;;;;;;;;;21.60;37.80;;;;;;3029877;19;4805;-67
2024/03/04 04:18:50;;;;;;;;;;;22.20;38.00;;;;;;3051249;19;5527;-68
2024/03/04 04:19:51;;;;;;;;;;;21.70;37.70;;;;;;3028335;19;6475;-67
2024/03/04 04:20:52;;;;;;;;;;;22.20;37.90;;;;;;3049418;19;4657;-69
2024/03/04 04:21:52;;;;;;;;;;;21.70;37.60;;;;;;3049200;19;4677;-68
2024/03/04 04:22:53;;;;;;;;;;;21.70;37.60;;;;;;3029031;19;5538;-68
2024/03/04 04:23:54;;;;;;;;;;;21.70;37.60;;;;;;3050307;19;5568;-68
2024/03/04 04:24:54;;;;;;;;;;;21.70;37.60;;;;;;3049048;19;5449;-68
2024/03/04 04:25:57;;;;;;;;;;;21.70;37.60;;;;;;3029746;19;5012;-68
2024/03/04 04:26:57;;;;;;;;;;;21.70;37.60;;;;;;3050535;19;4723;-69
2024/03/04 04:27:59;;;;;;;;;;;21.70;37.60;;;;;;3024050;19;5328;-68
2024/03/04 04:29:00;;;;;;;;;;;21.70;37.60;;;;;;3048692;19;4719;-67
2024/03/04 04:30:00;;;;;;;;;;;21.70;37.60;;;;;;3047949;19;4745;-68
2024/03/04 04:31:01;;;;;;;;;;;21.70;37.60;;;;;;3027798;19;5464;-68
2024/03/04 04:32:02;;;;;;;;;;;21.70;37.70;;;;;;3047440;19;5266;-67
2024/03/04 04:33:03;;;;;;;;;;;21.70;37.90;;;;;;3038986;19;5428;-68
2024/03/04 04:34:03;;;;;;;;;;;21.70;37.70;;;;;;3047195;19;5625;-68
2024/03/04 04:35:04;;;;;;;;;;;20.80;37.30;;;;;;3049486;19;6038;-68
2024/03/04 04:36:06;;;;;;;;;;;21.60;37.70;;;;;;3026838;19;4958;-68
2024/03/04 04:37:07;;;;;;;;;;;21.60;37.80;;;;;;3048133;19;4269;-68
2024/03/04 04:38:07;;;;;;;;;;;21.50;37.70;;;;;;3048597;19;5328;-70
2024/03/04 04:39:09;;;;;;;;;;;21.60;37.80;;;;;;3027033;19;4678;-69
2024/03/04 04:40:10;;;;;;;;;;;22.20;38.10;;;;;;3048349;19;5452;-68
2024/03/04 04:41:12;;;;;;;;;;;21.60;37.80;;;;;;3028319;19;5346;-68
2024/03/04 04:42:13;;;;;;;;;;;21.70;37.80;;;;;;3047880;19;5475;-69
2024/03/04 04:43:13;;;;;;;;;;;21.60;37.70;;;;;;3050073;19;4881;-68
2024/03/04 04:44:14;;;;;;;;;;;21.60;38.10;;;;;;3029068;19;5313;-68
2024/03/04 04:45:17;;;;;;;;;;;21.60;37.90;;;;;;3050442;19;5455;-69
2024/03/04 04:46:18;;;;;;;;;;;21.60;37.90;;;;;;3051600;19;5557;-68
2024/03/04 04:47:18;;;;;;;;;;;21.70;38.00;;;;;;3030025;19;4734;-68
2024/03/04 04:48:21;;;;;;;;;;;21.70;38.00;;;;;;3051123;19;4588;-69
2024/03/04 04:49:21;;;;;;;;;;;22.60;38.40;;;;;;3029978;19;5352;-68
2024/03/04 04:50:22;;;;;;;;;;;21.80;38.00;;;;;;3051824;19;5888;-68
2024/03/04 04:51:23;;;;;;;;;;;21.90;37.90;;;;;;3052896;19;5872;-68
2024/03/04 04:52:24;;;;;;;;;;;22.60;38.40;;;;;;3030217;19;5322;-68
2024/03/04 04:53:24;;;;;;;;;;;22.00;37.90;;;;;;3051482;19;5061;-69
2024/03/04 04:54:25;;;;;;;;;;;22.30;38.00;;;;;;3030373;19;5270;-69
2024/03/04 04:55:25;;;;;;;;;;;22.10;38.00;;;;;;3051797;19;4951;-68
2024/03/04 04:56:28;;;;;;;;;;;22.10;38.00;;;;;;3053729;19;4777;-69
2024/03/04 04:57:28;;;;;;;;;;;22.10;37.90;;;;;;3031758;19;5555;-69
2024/03/04 04:58:29;;;;;;;;;;;22.10;37.90;;;;;;3054530;19;5537;-75
2024/03/04 04:59:30;;;;;;;;;;;22.20;37.80;;;;;;3058270;19;5246;-70
2024/03/04 05:00:32;;;;;;;;;;;22.20;37.80;;;;;;3045067;19;4989;-70
2024/03/04 05:01:33;;;;;;;;;;;22.30;37.90;;;;;;3070533;19;5708;-70
2024/03/04 05:02:34;;;;;;;;;;;22.20;37.70;;;;;;3048830;19;5398;-71
2024/03/04 05:03:35;;;;;;;;;;;22.20;37.90;;;;;;3069619;19;4970;-72
2024/03/04 05:04:36;;;;;;;;;;;22.50;38.10;;;;;;3068549;19;5979;-70
2024/03/04 05:05:36;;;;;;;;;;;22.20;38.60;;;;;;3048290;19;4719;-71
2024/03/04 05:06:37;;;;;;;;;;;22.10;38.60;;;;;;3056363;19;5357;-70
2024/03/04 05:07:39;;;;;;;;;;;22.50;38.80;;;;;;3055190;19;4842;-71
2024/03/04 05:08:40;;;;;;;;;;;22.10;37.80;;;;;;3033841;19;5364;-73
2024/03/04 05:09:41;;;;;;;;;;;22.30;38.00;;;;;;3073156;19;5800;-77
2024/03/04 05:10:41;;;;;;;;;;;23.70;38.90;;;;;;3051407;19;5217;-75
2024/03/04 05:11:42;;;;;;;;;;;22.10;38.10;;;;;;3073380;19;5448;-75
2024/03/04 05:12:43;;;;;;;;;;;22.10;38.20;;;;;;3073658;19;5566;-75
2024/03/04 05:13:43;;;;;;;;;;;22.30;38.30;;;;;;3052271;19;5188;-74
2024/03/04 05:14:47;;;;;;;;;;;22.10;38.20;;;;;;3072536;19;5480;-74
2024/03/04 05:15:48;;;;;;;;;;;22.00;38.20;;;;;;3051307;19;5558;-75
2024/03/04 05:16:48;;;;;;;;;;;21.90;38.20;;;;;;3072242;19;4871;-76
2024/03/04 05:17:50;;;;;;;;;;;22.10;38.40;;;;;;3072399;19;4896;-75
2024/03/04 05:18:51;;;;;;;;;;;20.20;37.20;;;;;;3048528;19;4917;-75
2024/03/04 05:19:52;;;;;;;;;;;22.00;38.20;;;;;;3069486;19;5325;-76
2024/03/04 05:20:54;;;;;;;;;;;21.60;38.20;;;;;;3067680;19;4734;-77
2024/03/04 05:21:54;;;;;;;;;;;22.10;38.30;;;;;;3036739;19;5124;-75
2024/03/04 05:22:55;;;;;;;;;;;22.40;38.60;;;;;;3058350;19;4943;-75
2024/03/04 05:23:55;;;;;;;;;;;21.40;38.20;;;;;;3035604;19;5507;-75
2024/03/04 05:24:56;;;;;;;;;;;22.60;39.00;;;;;;3057663;19;5457;-75
2024/03/04 05:25:58;;;;;;;;;;;22.10;38.70;;;;;;3057109;19;4933;-76
2024/03/04 05:26:58;;;;;;;;;;;22.10;38.50;;;;;;3039024;19;5290;-76
2024/03/04 05:27:59;;;;;;;;;;;21.80;38.30;;;;;;3061645;19;5493;-77
2024/03/04 05:29:00;;;;;;;;;;;22.20;38.70;;;;;;3059571;19;4672;-77
2024/03/04 05:30:01;;;;;;;;;;;22.40;38.50;;;;;;3038288;19;4707;-76
2024/03/04 05:31:01;;;;;;;;;;;22.20;38.50;;;;;;3058672;19;4730;-76
2024/03/04 05:32:04;;;;;;;;;;;22.20;38.30;;;;;;3038716;19;5313;-76
2024/03/04 05:33:06;;;;;;;;;;;22.20;38.90;;;;;;3059256;19;5530;-76
2024/03/04 05:34:06;;;;;;;;;;;20.50;37.40;;;;;;3058167;19;5426;-73
2024/03/04 05:35:07;;;;;;;;;;;22.20;38.50;;;;;;3035691;19;4740;-75
2024/03/04 05:36:08;;;;;;;;;;;22.20;38.40;;;;;;3058901;19;1563;-75
2024/03/04 05:37:09;;;;;;;;;;;22.20;38.40;;;;;;3036537;19;5470;-76
2024/03/04 05:38:10;;;;;;;;;;;22.20;38.40;;;;;;3057654;19;4786;-75
2024/03/04 05:39:10;;;;;;;;;;;22.20;38.50;;;;;;3059199;19;5469;-76
2024/03/04 05:40:11;;;;;;;;;;;22.80;38.90;;;;;;3036770;19;4807;-76
2024/03/04 05:41:12;;;;;;;;;;;22.10;38.50;;;;;;3059021;19;4829;-76
2024/03/04 05:42:13;;;;;;;;;;;21.90;38.50;;;;;;3057491;19;4726;-75
2024/03/04 05:43:13;;;;;;;;;;;21.70;38.40;;;;;;3034970;19;5451;-76
2024/03/04 05:44:15;;;;;;;;;;;22.10;38.60;;;;;;3058770;19;4960;-74
2024/03/04 05:45:15;;;;;;;;;;;22.10;38.80;;;;;;3014414;19;5366;-75
2024/03/04 05:46:16;;;;;;;;;;;22.00;38.70;;;;;;3055388;19;5333;-75
2024/03/04 05:47:16;;;;;;;;;;;22.00;38.70;;;;;;3055922;19;5473;-75
2024/03/04 05:48:17;;;;;;;;;;;22.00;38.80;;;;;;3034575;19;5146;-76
2024/03/04 05:49:18;;;;;;;;;;;22.00;38.90;;;;;;3056219;19;5494;-76
2024/03/04 05:50:19;;;;;;;;;;;22.00;38.90;;;;;;3055553;19;5460;-74
2024/03/04 05:51:21;;;;;;;;;;;22.00;38.90;;;;;;3034234;19;5617;-76
2024/03/04 05:52:25;;;;;;;;;;;22.70;39.30;;;;;;3054900;19;4741;-75
2024/03/04 05:53:25;;;;;;;;;;;21.90;38.80;;;;;;3034552;19;5126;-75
2024/03/04 05:54:26;;;;;;;;;;;22.60;39.20;;;;;;3053704;19;5467;-75
2024/03/04 05:55:27;;;;;;;;;;;21.90;38.80;;;;;;3054913;19;5755;-76
2024/03/04 05:56:27;;;;;;;;;;;22.50;39.20;;;;;;3033553;19;5057;-75
2024/03/04 05:57:28;;;;;;;;;;;21.90;38.80;;;;;;3055359;19;5315;-75
2024/03/04 05:58:29;;;;;;;;;;;21.90;39.10;;;;;;3031773;19;5033;-75
2024/03/04 05:59:30;;;;;;;;;;;22.00;39.30;;;;;;3054789;19;4764;-77
2024/03/04 06:00:32;;;;;;;;;;;21.90;39.30;;;;;;3053227;19;5462;-75
2024/03/04 06:01:32;;;;;;;;;;;22.00;39.30;;;;;;3032213;19;5190;-75
2024/03/04 06:02:33;;;;;;;;;;;22.40;39.80;;;;;;3054044;19;4902;-75
2024/03/04 06:03:33;;;;;;;;;;;23.30;40.10;;;;;;3054126;19;5844;-76
2024/03/04 06:04:34;;;;;;;;;;;23.00;39.90;;;;;;3030722;19;5259;-74
2024/03/04 06:05:35;;;;;;;;;;;22.90;40.00;;;;;;3053401;19;4972;-76
2024/03/04 06:06:36;;;;;;;;;;;22.00;39.30;;;;;;3030485;19;5282;-75
2024/03/04 06:07:37;;;;;;;;;;;21.40;39.00;;;;;;3048604;19;4808;-76
2024/03/04 06:08:38;;;;;;;;;;;22.00;39.40;;;;;;3050311;19;4871;-67
2024/03/04 06:09:38;;;;;;;;;;;22.20;39.50;;;;;;3027126;19;4660;-68
2024/03/04 06:10:39;;;;;;;;;;;22.00;39.40;;;;;;3048580;19;4778;-68
2024/03/04 06:11:41;;;;;;;;;;;21.40;39.10;;;;;;3048644;19;5377;-68
2024/03/04 06:12:42;;;;;;;;;;;22.50;39.80;;;;;;3026941;19;5583;-68
2024/03/04 06:13:44;;;;;;;;;;;22.00;39.50;;;;;;3046021;19;5496;-69
2024/03/04 06:14:45;;;;;;;;;;;22.00;39.40;;;;;;3023114;19;5786;-69
2024/03/04 06:15:45;;;;;;;;;;;22.00;39.50;;;;;;3048072;19;5903;-70